Time;durP1;ratioP1;P1;durP2;ratioP2;P2;SDS_P1;SDS_P2;PMS_P1;PMS_P2;Temp;Humidity;BMP_temperature;BMP_pressure;BME280_temperature;BME280_humidity;BME280_pressure;Samples;Min_cycle;Max_cycle;Signal;HPM_P1;HPM_P2
2021/12/27 00:01:03;;;;;;;15.13;7.03;;;;;;;;;;6371028;27;20043;-67
2021/12/27 00:04:13;;;;;;;15.60;7.53;;;;;;;;;;6351711;27;20089;-67
2021/12/27 00:07:23;;;;;;;16.02;7.28;;;;;;;;;;6368581;27;20092;-67
2021/12/27 00:10:31;;;;;;;14.57;7.25;;;;;;;;;;6352263;27;20054;-67
2021/12/27 00:13:38;;;;;;;15.52;7.22;;;;;;;;;;6370511;27;20093;-67
2021/12/27 00:16:42;;;;;;;15.93;8.10;;;;;;;;;;6352037;27;20118;-67
2021/12/27 00:19:52;;;;;;;15.63;7.30;;;;;;;;;;6353179;27;20051;-67
2021/12/27 00:23:00;;;;;;;17.10;7.35;;;;;;;;;;6352013;27;20397;-66
2021/12/27 00:26:08;;;;;;;16.15;7.60;;;;;;;;;;6369802;27;20122;-66
2021/12/27 00:29:15;;;;;;;18.92;7.38;;;;;;;;;;6370661;27;20134;-66
2021/12/27 00:32:21;;;;;;;16.40;8.73;;;;;;;;;;6369352;27;20126;-66
2021/12/27 00:35:29;;;;;;;18.13;8.68;;;;;;;;;;6370426;27;20051;-66
2021/12/27 00:38:33;;;;;;;;;;;;;;;;;;6352447;27;20046;-66
2021/12/27 00:41:42;;;;;;;14.73;7.28;;;;;;;;;;6370547;27;20004;-66
2021/12/27 00:44:51;;;;;;;69.22;27.25;;;;;;;;;;6370864;27;20504;-67
2021/12/27 00:47:58;;;;;;;16.35;8.40;;;;;;;;;;6368486;27;20079;-67
2021/12/27 00:51:05;;;;;;;20.30;8.40;;;;;;;;;;6368503;27;20065;-67
2021/12/27 00:54:11;;;;;;;15.75;8.18;;;;;;;;;;6368820;27;20130;-68
2021/12/27 00:57:20;;;;;;;18.08;8.90;;;;;;;;;;6371404;27;20096;-70
2021/12/27 01:00:28;;;;;;;19.67;8.50;;;;;;;;;;6368442;27;20057;-67
2021/12/27 01:03:34;;;;;;;19.05;9.00;;;;;;;;;;6368668;27;20047;-67
2021/12/27 01:06:39;;;;;;;17.45;8.52;;;;;;;;;;6350303;27;20046;-68
2021/12/27 01:09:58;;;;;;;19.27;7.82;;;;;;;;;;6368803;27;20445;-67
2021/12/27 01:13:19;;;;;;;17.98;7.97;;;;;;;;;;6368077;27;20039;-67
2021/12/27 01:16:26;;;;;;;18.70;7.88;;;;;;;;;;6370740;27;20062;-68
2021/12/27 01:19:32;;;;;;;19.65;8.15;;;;;;;;;;6351054;27;20126;-67
2021/12/27 01:22:39;;;;;;;17.77;8.77;;;;;;;;;;6368081;27;20051;-67
2021/12/27 01:25:45;;;;;;;19.55;8.25;;;;;;;;;;6368050;27;20055;-67
2021/12/27 01:28:54;;;;;;;18.80;8.82;;;;;;;;;;6368562;27;20039;-67
2021/12/27 01:32:02;;;;;;;17.27;8.55;;;;;;;;;;6368846;27;20046;-67
2021/12/27 01:35:09;;;;;;;19.95;8.80;;;;;;;;;;6349242;27;20062;-67
2021/12/27 01:38:13;;;;;;;19.25;8.68;;;;;;;;;;6367895;27;20562;-66
2021/12/27 01:41:21;;;;;;;17.67;8.10;;;;;;;;;;6368581;27;20080;-67
2021/12/27 01:44:28;;;;;;;17.70;8.23;;;;;;;;;;6350225;27;20051;-66
2021/12/27 01:47:34;;;;;;;18.13;8.90;;;;;;;;;;6349318;27;20046;-66
2021/12/27 01:50:40;;;;;;;16.27;8.50;;;;;;;;;;6368225;27;20091;-65
2021/12/27 01:53:46;;;;;;;18.15;9.00;;;;;;;;;;6350438;28;20058;-65
2021/12/27 01:56:51;;;;;;;17.58;8.13;;;;;;;;;;6367247;28;20043;-66
2021/12/27 01:59:59;;;;;;;16.63;7.88;;;;;;;;;;6349202;28;20047;-67
2021/12/27 02:03:20;;;;;;;15.93;8.13;;;;;;;;;;6368346;28;20062;-66
2021/12/27 02:06:27;;;;;;;16.55;7.68;;;;;;;;;;6368061;28;20051;-66
2021/12/27 02:09:45;;;;;;;19.38;8.52;;;;;;;;;;6367205;28;20047;-66
2021/12/27 02:12:52;;;;;;;18.50;8.68;;;;;;;;;;6367754;28;20058;-66
2021/12/27 02:16:00;;;;;;;19.63;8.48;;;;;;;;;;6350486;28;20051;-67
2021/12/27 02:19:07;;;;;;;16.20;7.70;;;;;;;;;;6367246;28;20071;-66
2021/12/27 02:22:14;;;;;;;15.50;8.00;;;;;;;;;;6367666;28;20035;-66
2021/12/27 02:25:19;;;;;;;18.58;8.63;;;;;;;;;;6368044;28;20050;-66
2021/12/27 02:28:25;;;;;;;16.63;8.35;;;;;;;;;;6350036;28;20047;-66
2021/12/27 02:31:39;;;;;;;16.85;8.38;;;;;;;;;;6368127;27;20043;-67
2021/12/27 02:34:44;;;;;;;18.13;7.97;;;;;;;;;;6354347;27;20047;-66
2021/12/27 02:37:49;;;;;;;15.23;7.72;;;;;;;;;;6373026;27;20473;-67
2021/12/27 02:40:52;;;;;;;15.95;8.27;;;;;;;;;;6371937;27;20386;-67
2021/12/27 02:43:57;;;;;;;16.90;8.07;;;;;;;;;;6372810;27;20047;-66
2021/12/27 02:47:01;;;;;;;16.90;8.20;;;;;;;;;;6372796;27;20047;-66
2021/12/27 02:50:05;;;;;;;16.40;7.43;;;;;;;;;;6371674;27;20039;-66
2021/12/27 02:53:12;;;;;;;13.40;7.70;;;;;;;;;;6353479;27;20046;-66
2021/12/27 02:56:15;;;;;;;;;;;;;;;;;;6354875;27;20043;-67
2021/12/27 02:59:21;;;;;;;17.55;7.68;;;;;;;;;;6371841;27;19919;-66
2021/12/27 03:02:27;;;;;;;16.48;8.52;;;;;;;;;;6353241;27;20139;-67
2021/12/27 03:05:32;;;;;;;14.93;7.85;;;;;;;;;;6354405;27;20100;-67
2021/12/27 03:08:41;;;;;;;15.32;6.72;;;;;;;;;;6372286;27;20071;-66
2021/12/27 03:11:48;;;;;;;13.18;6.68;;;;;;;;;;6371049;27;20164;-67
2021/12/27 03:14:54;;;;;;;16.10;7.60;;;;;;;;;;6371890;27;20055;-67
2021/12/27 03:18:01;;;;;;;13.40;7.30;;;;;;;;;;6372408;27;20047;-66
2021/12/27 03:21:08;;;;;;;15.85;7.60;;;;;;;;;;6371504;27;20051;-66
2021/12/27 03:24:16;;;;;;;16.08;7.30;;;;;;;;;;6371147;27;20193;-67
2021/12/27 03:27:26;;;;;;;14.82;7.25;;;;;;;;;;6371962;27;20470;-67
2021/12/27 03:30:31;;;;;;;16.85;8.00;;;;;;;;;;6371603;27;20043;-67
2021/12/27 03:33:36;;;;;;;18.37;8.77;;;;;;;;;;6370529;27;20047;-66
2021/12/27 03:36:42;;;;;;;17.75;7.60;;;;;;;;;;6371082;27;20294;-66
2021/12/27 03:39:49;;;;;;;18.42;7.70;;;;;;;;;;6371123;27;20055;-66
2021/12/27 03:42:57;;;;;;;14.40;7.55;;;;;;;;;;6370100;27;20108;-66
2021/12/27 03:46:03;;;;;;;14.93;7.18;;;;;;;;;;6370611;27;20039;-66
2021/12/27 03:49:09;;;;;;;14.10;6.80;;;;;;;;;;6371627;27;20176;-65
2021/12/27 03:52:13;;;;;;;15.38;7.18;;;;;;;;;;6352284;27;20047;-66
2021/12/27 03:55:19;;;;;;;16.00;7.65;;;;;;;;;;6370490;27;20520;-66
2021/12/27 03:58:27;;;;;;;17.35;7.20;;;;;;;;;;6370900;27;20477;-65
2021/12/27 04:01:31;;;;;;;15.75;7.40;;;;;;;;;;6352197;27;20484;-66
2021/12/27 04:04:35;;;;;;;17.37;7.60;;;;;;;;;;6351558;27;20047;-66
2021/12/27 04:07:44;;;;;;;16.35;7.28;;;;;;;;;;6351811;27;20043;-66
2021/12/27 04:10:53;;;;;;;14.35;7.13;;;;;;;;;;6370911;27;20054;-66
2021/12/27 04:14:02;;;;;;;16.17;7.90;;;;;;;;;;6369720;27;20039;-66
2021/12/27 04:17:05;;;;;;;;;;;;;;;;;;6352045;27;20134;-66
2021/12/27 04:20:11;;;;;;;16.63;7.50;;;;;;;;;;6352706;27;20204;-66
2021/12/27 04:23:15;;;;;;;13.23;6.88;;;;;;;;;;6370111;27;20050;-66
2021/12/27 04:26:22;;;;;;;14.80;6.72;;;;;;;;;;6369493;27;20051;-67
2021/12/27 04:29:26;;;;;;;16.90;7.43;;;;;;;;;;6370741;27;20077;-66
2021/12/27 04:32:30;;;;;;;15.25;7.38;;;;;;;;;;6370404;27;20035;-67
2021/12/27 04:35:35;;;;;;;17.20;7.43;;;;;;;;;;6333795;27;20051;-66
2021/12/27 04:38:42;;;;;;;14.90;7.05;;;;;;;;;;6369510;27;20047;-66
2021/12/27 04:41:50;;;;;;;15.07;6.90;;;;;;;;;;6369818;27;20078;-67
2021/12/27 04:44:56;;;;;;;14.80;7.18;;;;;;;;;;6350760;27;20050;-67
2021/12/27 04:48:02;;;;;;;;;;;;;;;;;;6370036;27;20043;-67
2021/12/27 04:51:09;;;;;;;14.88;6.82;;;;;;;;;;6369652;27;19926;-66
2021/12/27 04:54:16;;;;;;;16.67;7.13;;;;;;;;;;6350480;27;20039;-67
2021/12/27 04:57:25;;;;;;;15.38;6.50;;;;;;;;;;6367876;27;20074;-67
2021/12/27 05:00:33;;;;;;;14.88;6.80;;;;;;;;;;6350801;27;20043;-66
2021/12/27 05:03:40;;;;;;;18.25;8.25;;;;;;;;;;6369494;27;20055;-66
2021/12/27 05:06:47;;;;;;;14.75;6.97;;;;;;;;;;6368147;27;20476;-66
2021/12/27 05:09:54;;;;;;;17.52;8.00;;;;;;;;;;6368901;27;20507;-66
2021/12/27 05:13:03;;;;;;;16.95;7.90;;;;;;;;;;6369645;27;20054;-66
2021/12/27 05:16:09;;;;;;;16.88;7.70;;;;;;;;;;6368690;27;20456;-66
2021/12/27 05:19:17;;;;;;;14.32;6.68;;;;;;;;;;6368466;27;20050;-67
2021/12/27 05:22:24;;;;;;;15.48;7.45;;;;;;;;;;6350444;27;20047;-66
2021/12/27 05:25:31;;;;;;;15.02;7.53;;;;;;;;;;6369482;27;20043;-66
2021/12/27 05:28:39;;;;;;;13.00;6.30;;;;;;;;;;6368049;27;20401;-66
2021/12/27 05:31:47;;;;;;;14.98;6.07;;;;;;;;;;6368422;27;20503;-67
2021/12/27 05:34:53;;;;;;;17.67;6.93;;;;;;;;;;6368732;27;20096;-66
2021/12/27 05:37:59;;;;;;;15.23;6.75;;;;;;;;;;6368272;27;20497;-66
2021/12/27 05:41:03;;;;;;;12.90;6.38;;;;;;;;;;6367503;27;20054;-67
2021/12/27 05:44:08;;;;;;;14.45;6.65;;;;;;;;;;6368525;27;20047;-65
2021/12/27 05:47:14;;;;;;;14.68;6.55;;;;;;;;;;6368474;27;20071;-65
2021/12/27 05:50:18;;;;;;;16.55;6.95;;;;;;;;;;6349244;28;20088;-64
2021/12/27 05:53:27;;;;;;;14.88;6.68;;;;;;;;;;6368176;27;20051;-65
2021/12/27 05:56:31;;;;;;;16.45;6.90;;;;;;;;;;6350519;28;20130;-66
2021/12/27 05:59:37;;;;;;;12.93;6.50;;;;;;;;;;6367686;28;20569;-65
2021/12/27 06:02:41;;;;;;;;;;;;;;;;;;6350073;28;20055;-65
2021/12/27 06:05:47;;;;;;;11.07;5.65;;;;;;;;;;6350184;27;20284;-66
2021/12/27 06:08:52;;;;;;;14.10;6.50;;;;;;;;;;6372238;27;20054;-65
2021/12/27 06:11:58;;;;;;;14.23;6.43;;;;;;;;;;6373016;27;20043;-66
2021/12/27 06:15:07;;;;;;;14.93;6.75;;;;;;;;;;6373590;27;20067;-66
2021/12/27 06:18:12;;;;;;;15.63;6.82;;;;;;;;;;6354818;27;20527;-66
2021/12/27 06:21:18;;;;;;;14.13;6.63;;;;;;;;;;6372211;27;20043;-66
2021/12/27 06:24:22;;;;;;;;;;;;;;;;;;6374003;27;20039;-65
2021/12/27 06:27:26;;;;;;;30.60;8.13;;;;;;;;;;6373237;27;19919;-65
2021/12/27 06:30:31;;;;;;;16.05;7.45;;;;;;;;;;6353604;27;20425;-66
2021/12/27 06:33:35;;;;;;;14.73;6.25;;;;;;;;;;6354111;27;20040;-67
2021/12/27 06:36:38;;;;;;;14.65;7.35;;;;;;;;;;6354839;27;20054;-66
2021/12/27 06:39:41;;;;;;;15.65;6.93;;;;;;;;;;6353472;27;20105;-66
2021/12/27 06:42:44;;;;;;;16.55;6.65;;;;;;;;;;6353174;27;20039;-65
2021/12/27 06:45:49;;;;;;;15.32;7.63;;;;;;;;;;6372375;27;20547;-66
2021/12/27 06:48:52;;;;;;;13.65;6.70;;;;;;;;;;6372410;27;20151;-66
2021/12/27 06:51:58;;;;;;;14.02;6.72;;;;;;;;;;6352889;27;20054;-66
2021/12/27 06:55:01;;;;;;;19.85;7.43;;;;;;;;;;6371954;27;20364;-66
2021/12/27 06:58:04;;;;;;;14.63;7.32;;;;;;;;;;6353739;27;20488;-66
2021/12/27 07:01:09;;;;;;;14.57;7.60;;;;;;;;;;6371199;27;20400;-66
2021/12/27 07:04:13;;;;;;;15.85;7.70;;;;;;;;;;6371514;27;20072;-66
2021/12/27 07:07:18;;;;;;;17.00;6.67;;;;;;;;;;6372095;27;20224;-67
2021/12/27 07:10:22;;;;;;;13.93;6.63;;;;;;;;;;6371622;27;20424;-65
2021/12/27 07:13:27;;;;;;;14.50;5.63;;;;;;;;;;6352461;27;20112;-66
2021/12/27 07:16:31;;;;;;;13.80;6.25;;;;;;;;;;6352948;27;20096;-67
2021/12/27 07:19:36;;;;;;;15.25;7.20;;;;;;;;;;6352092;27;20050;-67
2021/12/27 07:22:39;;;;;;;14.25;5.80;;;;;;;;;;6370023;27;20088;-68
2021/12/27 07:25:45;;;;;;;14.02;6.93;;;;;;;;;;6371255;27;20104;-67
2021/12/27 07:28:48;;;;;;;14.13;6.60;;;;;;;;;;6371592;27;20051;-65
2021/12/27 07:31:52;;;;;;;14.73;6.20;;;;;;;;;;6352255;27;20047;-67
2021/12/27 07:34:56;;;;;;;16.73;6.50;;;;;;;;;;6352061;27;20044;-67
2021/12/27 07:38:00;;;;;;;14.73;6.78;;;;;;;;;;6370911;27;20114;-67
2021/12/27 07:41:03;;;;;;;15.18;6.45;;;;;;;;;;6352714;27;20051;-67
2021/12/27 07:44:07;;;;;;;14.57;6.53;;;;;;;;;;6369811;27;20051;-65
2021/12/27 07:47:12;;;;;;;13.82;6.72;;;;;;;;;;6370819;27;20100;-65
2021/12/27 07:50:15;;;;;;;14.00;6.53;;;;;;;;;;6370882;27;20164;-67
2021/12/27 07:53:24;;;;;;;10.45;5.82;;;;;;;;;;6351821;27;20043;-67
2021/12/27 07:56:29;;;;;;;13.17;6.03;;;;;;;;;;6351598;27;20489;-67
2021/12/27 07:59:32;;;;;;;15.95;6.00;;;;;;;;;;6352263;27;20039;-67
2021/12/27 08:02:37;;;;;;;14.40;6.20;;;;;;;;;;6370243;27;20043;-67
2021/12/27 08:05:40;;;;;;;16.08;6.68;;;;;;;;;;6369448;27;20090;-68
2021/12/27 08:08:43;;;;;;;12.50;6.03;;;;;;;;;;6351621;27;20443;-68
2021/12/27 08:11:46;;;;;;;15.10;6.97;;;;;;;;;;6352070;27;20076;-66
2021/12/27 08:14:49;;;;;;;13.73;6.63;;;;;;;;;;6350802;27;20527;-66
2021/12/27 08:17:53;;;;;;;17.45;7.15;;;;;;;;;;6369510;27;20420;-67
2021/12/27 08:20:56;;;;;;;14.68;6.80;;;;;;;;;;6370122;27;20045;-68
2021/12/27 08:23:59;;;;;;;13.65;7.07;;;;;;;;;;6351048;27;20046;-67
2021/12/27 08:27:05;;;;;;;15.93;6.93;;;;;;;;;;6368992;27;20043;-68
2021/12/27 08:30:09;;;;;;;12.40;6.28;;;;;;;;;;6369620;27;20039;-68
2021/12/27 08:33:13;;;;;;;14.55;6.25;;;;;;;;;;6369938;27;20134;-67
2021/12/27 08:36:16;;;;;;;17.50;8.63;;;;;;;;;;6368415;27;20382;-68
2021/12/27 08:39:19;;;;;;;10.68;5.57;;;;;;;;;;6351032;27;20039;-68
2021/12/27 08:42:25;;;;;;;11.60;6.00;;;;;;;;;;6351192;27;20055;-67
2021/12/27 08:45:28;;;;;;;12.82;5.95;;;;;;;;;;6368835;27;20489;-67
2021/12/27 08:48:34;;;;;;;13.20;6.63;;;;;;;;;;6368976;27;20049;-68
2021/12/27 08:51:40;;;;;;;14.25;6.65;;;;;;;;;;6351450;27;20096;-65
2021/12/27 08:54:44;;;;;;;12.20;6.40;;;;;;;;;;6368280;27;20095;-66
2021/12/27 08:57:48;;;;;;;14.65;7.20;;;;;;;;;;6350809;27;20043;-67
2021/12/27 09:00:51;;;;;;;18.08;7.82;;;;;;;;;;6351621;27;20047;-67
2021/12/27 09:03:56;;;;;;;16.35;7.63;;;;;;;;;;6351774;27;20039;-67
2021/12/27 09:07:01;;;;;;;15.55;7.38;;;;;;;;;;6333881;27;20130;-67
2021/12/27 09:10:05;;;;;;;17.65;7.25;;;;;;;;;;6347406;27;20073;-68
2021/12/27 09:13:09;;;;;;;14.52;6.93;;;;;;;;;;6348399;27;20083;-66
2021/12/27 09:16:13;;;;;;;13.32;6.45;;;;;;;;;;6365477;27;20054;-66
2021/12/27 09:19:18;;;;;;;18.40;7.75;;;;;;;;;;6363069;27;20046;-66
2021/12/27 09:22:20;;;;;;;15.95;6.35;;;;;;;;;;6363832;27;20543;-66
2021/12/27 09:25:24;;;;;;;11.68;5.80;;;;;;;;;;6347591;27;20039;-65
2021/12/27 09:28:26;;;;;;;10.70;6.40;;;;;;;;;;6346462;27;20122;-65
2021/12/27 09:31:29;;;;;;;10.82;5.22;;;;;;;;;;6347199;27;20062;-65
2021/12/27 09:34:34;;;;;;;10.07;5.40;;;;;;;;;;6368445;27;20053;-66
2021/12/27 09:37:37;;;;;;;14.63;5.65;;;;;;;;;;6370863;27;20073;-65
2021/12/27 09:40:40;;;;;;;9.82;5.70;;;;;;;;;;6352301;27;20047;-66
2021/12/27 09:43:44;;;;;;;14.48;6.20;;;;;;;;;;6349761;27;20290;-66
2021/12/27 09:46:47;;;;;;;10.75;5.05;;;;;;;;;;6367895;27;20060;-66
2021/12/27 09:49:54;;;;;;;10.93;5.55;;;;;;;;;;6348796;27;20051;-66
2021/12/27 09:53:01;;;;;;;10.57;5.55;;;;;;;;;;6349588;27;20047;-67
2021/12/27 09:56:08;;;;;;;9.30;4.70;;;;;;;;;;6368119;27;20693;-66
2021/12/27 09:59:14;;;;;;;11.82;5.22;;;;;;;;;;6348666;28;20537;-66
2021/12/27 10:02:18;;;;;;;10.32;5.15;;;;;;;;;;6367394;28;20115;-66
2021/12/27 10:05:23;;;;;;;8.00;4.85;;;;;;;;;;6367996;28;20509;-66
2021/12/27 10:08:30;;;;;;;8.77;4.55;;;;;;;;;;6349024;28;20412;-66
2021/12/27 10:11:34;;;;;;;7.97;4.55;;;;;;;;;;6366971;28;20536;-65
2021/12/27 10:14:39;;;;;;;11.77;5.05;;;;;;;;;;6367583;28;20047;-65
2021/12/27 10:17:43;;;;;;;11.25;5.15;;;;;;;;;;6367399;28;20114;-66
2021/12/27 10:20:47;;;;;;;12.55;5.28;;;;;;;;;;6366697;28;20039;-66
2021/12/27 10:23:50;;;;;;;9.13;5.00;;;;;;;;;;6348766;28;20126;-66
2021/12/27 10:26:54;;;;;;;12.90;5.50;;;;;;;;;;6367785;28;20047;-66
2021/12/27 10:29:56;;;;;;;10.05;4.80;;;;;;;;;;6348478;28;20499;-66
2021/12/27 10:33:08;;;;;;;17.02;5.05;;;;;;;;;;6348729;28;20039;-66
2021/12/27 10:36:12;;;;;;;11.88;4.85;;;;;;;;;;6349212;28;20047;-66
2021/12/27 10:39:15;;;;;;;8.13;4.38;;;;;;;;;;6367527;28;20436;-68
2021/12/27 10:42:20;;;;;;;9.52;4.70;;;;;;;;;;6366250;28;20130;-66
2021/12/27 10:45:24;;;;;;;7.95;4.50;;;;;;;;;;6348543;28;20055;-66
2021/12/27 10:48:32;;;;;;;12.25;5.28;;;;;;;;;;6367562;28;20092;-66
2021/12/27 10:51:36;;;;;;;11.38;4.80;;;;;;;;;;6366737;28;20113;-66
2021/12/27 10:54:39;;;;;;;13.45;6.07;;;;;;;;;;6352000;27;20057;-66
2021/12/27 10:57:42;;;;;;;10.50;4.90;;;;;;;;;;6372615;27;20051;-66
2021/12/27 11:00:47;;;;;;;10.18;4.68;;;;;;;;;;6353506;27;20481;-66
2021/12/27 11:03:51;;;;;;;13.35;4.78;;;;;;;;;;6370816;27;20042;-66
2021/12/27 11:06:57;;;;;;;9.95;4.80;;;;;;;;;;6353234;27;20125;-66
2021/12/27 11:10:03;;;;;;;12.48;5.18;;;;;;;;;;6371497;27;20054;-66
2021/12/27 11:13:06;;;;;;;10.05;4.55;;;;;;;;;;6370309;27;20043;-66
2021/12/27 11:16:09;;;;;;;10.73;4.60;;;;;;;;;;6352460;27;20050;-66
2021/12/27 11:19:12;;;;;;;16.98;4.70;;;;;;;;;;6371594;27;20043;-66
2021/12/27 11:22:19;;;;;;;8.57;4.55;;;;;;;;;;6371252;27;20051;-66
2021/12/27 11:25:27;;;;;;;13.85;5.20;;;;;;;;;;6370772;27;20100;-66
2021/12/27 11:28:34;;;;;;;10.73;5.15;;;;;;;;;;6353024;27;20378;-66
2021/12/27 11:31:40;;;;;;;10.45;4.70;;;;;;;;;;6336687;27;20054;-66
2021/12/27 11:34:53;;;;;;;13.27;5.13;;;;;;;;;;6370032;27;20047;-66
2021/12/27 11:38:01;;;;;;;12.23;4.90;;;;;;;;;;6370492;27;20408;-66
2021/12/27 11:41:04;;;;;;;9.63;4.20;;;;;;;;;;6352705;27;20063;-67
2021/12/27 11:44:08;;;;;;;10.48;4.55;;;;;;;;;;6370758;27;20051;-66
2021/12/27 11:47:12;;;;;;;10.05;4.60;;;;;;;;;;6369892;27;20071;-66
2021/12/27 11:50:18;;;;;;;8.60;4.40;;;;;;;;;;6352064;27;20127;-66
2021/12/27 11:53:28;;;;;;;10.82;5.32;;;;;;;;;;6352557;27;20051;-66
2021/12/27 11:56:48;;;;;;;10.25;4.10;;;;;;;;;;6369655;27;20039;-67
2021/12/27 11:59:55;;;;;;;9.88;4.55;;;;;;;;;;6334731;27;20063;-67
2021/12/27 12:03:12;;;;;;;8.32;3.83;;;;;;;;;;6352872;27;20173;-66
2021/12/27 12:06:34;;;;;;;10.00;4.40;;;;;;;;;;6335855;27;20043;-67
2021/12/27 12:09:46;;;;;;;10.43;4.78;;;;;;;;;;6369400;27;20071;-66
2021/12/27 12:13:19;;;;;;;11.43;4.70;;;;;;;;;;6351159;27;20051;-66
2021/12/27 12:16:23;;;;;;;9.38;4.60;;;;;;;;;;6266563;28;20124;-66
2021/12/27 12:19:43;;;;;;;10.57;4.18;;;;;;;;;;6351795;27;20413;-67
2021/12/27 12:22:45;;;;;;;11.32;4.63;;;;;;;;;;6350880;27;20061;-66
2021/12/27 12:25:57;;;;;;;9.80;4.45;;;;;;;;;;6350746;27;20401;-66
2021/12/27 12:29:06;;;;;;;9.45;4.82;;;;;;;;;;6351410;27;20481;-66
2021/12/27 12:32:10;;;;;;;9.02;4.93;;;;;;;;;;6351466;27;20045;-66
2021/12/27 12:35:30;;;;;;;10.50;5.00;;;;;;;;;;6368489;27;20039;-66
2021/12/27 12:38:34;;;;;;;9.63;4.50;;;;;;;;;;6350707;27;20088;-66
2021/12/27 12:41:40;;;;;;;17.00;6.03;;;;;;;;;;6369636;27;20074;-66
2021/12/27 12:44:48;;;;;;;11.48;5.30;;;;;;;;;;6350563;27;20046;-66
2021/12/27 12:47:51;;;;;;;11.45;5.68;;;;;;;;;;6350075;27;20100;-66
2021/12/27 12:50:54;;;;;;;12.52;5.50;;;;;;;;;;6369421;27;20051;-66
2021/12/27 12:53:57;;;;;;;16.60;5.88;;;;;;;;;;6369064;27;20175;-66
2021/12/27 12:57:06;;;;;;;16.40;5.70;;;;;;;;;;6349703;27;20047;-65
2021/12/27 13:00:08;;;;;;;;;;;;;;;;;;6372210;27;20077;-65
2021/12/27 13:03:12;;;;;;;15.32;6.63;;;;;;;;;;6370331;27;19920;-65
2021/12/27 13:06:16;;;;;;;13.52;5.30;;;;;;;;;;6350063;27;20567;-66
2021/12/27 13:09:21;;;;;;;11.63;5.53;;;;;;;;;;6333233;27;20058;-65
2021/12/27 13:12:26;;;;;;;11.35;5.78;;;;;;;;;;6350735;27;20047;-65
2021/12/27 13:15:35;;;;;;;14.45;5.90;;;;;;;;;;6350130;27;20549;-65
2021/12/27 13:18:40;;;;;;;13.73;6.10;;;;;;;;;;6348703;27;20043;-68
2021/12/27 13:21:43;;;;;;;14.70;6.00;;;;;;;;;;6368399;27;20057;-65
2021/12/27 13:24:52;;;;;;;10.60;5.38;;;;;;;;;;6369248;27;20061;-65
2021/12/27 13:28:09;;;;;;;14.55;6.55;;;;;;;;;;6368247;27;20100;-65
2021/12/27 13:31:16;;;;;;;13.05;6.38;;;;;;;;;;6348942;27;20054;-65
2021/12/27 13:34:19;;;;;;;15.23;7.45;;;;;;;;;;6368282;27;20047;-66
2021/12/27 13:37:22;;;;;;;13.88;7.32;;;;;;;;;;6349929;27;20054;-65
2021/12/27 13:40:25;;;;;;;18.33;7.70;;;;;;;;;;6366760;27;20489;-66
2021/12/27 13:43:30;;;;;;;19.40;8.23;;;;;;;;;;6367993;27;20057;-66
2021/12/27 13:46:34;;;;;;;17.63;7.97;;;;;;;;;;6368045;27;20397;-67
2021/12/27 13:49:38;;;;;;;16.92;8.45;;;;;;;;;;6349369;27;20074;-67
2021/12/27 13:52:45;;;;;;;13.38;7.50;;;;;;;;;;6348680;27;20043;-67
2021/12/27 13:55:48;;;;;;;16.25;8.02;;;;;;;;;;6368191;27;20108;-67
2021/12/27 13:58:53;;;;;;;15.80;8.05;;;;;;;;;;6349519;28;20199;-67
2021/12/27 14:01:57;;;;;;;17.63;8.57;;;;;;;;;;6366716;28;20164;-67
2021/12/27 14:05:03;;;;;;;18.90;8.52;;;;;;;;;;6349261;28;20076;-67
2021/12/27 14:08:10;;;;;;;16.65;7.80;;;;;;;;;;6349635;28;20054;-67
2021/12/27 14:11:13;;;;;;;23.98;9.70;;;;;;;;;;6366745;28;20050;-66
2021/12/27 14:14:32;;;;;;;15.15;7.82;;;;;;;;;;6366994;28;20129;-66
2021/12/27 14:17:42;;;;;;;16.17;7.82;;;;;;;;;;6369051;27;20038;-66
2021/12/27 14:20:59;;;;;;;15.88;7.38;;;;;;;;;;6393276;27;20122;-66
2021/12/27 14:24:04;;;;;;;19.33;7.70;;;;;;;;;;6392405;27;20277;-66
2021/12/27 14:27:14;;;;;;;16.98;7.50;;;;;;;;;;6392736;27;20516;-66
2021/12/27 14:30:20;;;;;;;17.38;8.10;;;;;;;;;;6398648;27;20468;-66
2021/12/27 14:33:23;;;;;;;22.70;8.13;;;;;;;;;;6398345;27;20046;-66
2021/12/27 14:36:26;;;;;;;15.60;7.55;;;;;;;;;;6397017;27;20549;-66
2021/12/27 14:39:28;;;;;;;19.08;8.73;;;;;;;;;;6398297;27;20399;-66
2021/12/27 14:42:32;;;;;;;19.73;9.45;;;;;;;;;;6398252;27;20051;-66
2021/12/27 14:45:39;;;;;;;14.40;8.18;;;;;;;;;;6378206;27;20035;-68
2021/12/27 14:48:42;;;;;;;37.10;17.48;;;;;;;;;;6379002;27;20492;-67
2021/12/27 14:51:45;;;;;;;21.73;10.50;;;;;;;;;;6398224;27;20081;-67
2021/12/27 14:54:48;;;;;;;23.75;9.68;;;;;;;;;;6397103;27;20050;-66
2021/12/27 14:57:54;;;;;;;18.52;8.45;;;;;;;;;;6377961;27;20210;-67
2021/12/27 15:01:06;;;;;;;17.17;8.13;;;;;;;;;;6379414;27;20083;-68
2021/12/27 15:04:09;;;;;;;15.70;7.88;;;;;;;;;;6379157;27;20050;-66
2021/12/27 15:07:12;;;;;;;19.38;8.80;;;;;;;;;;6377490;27;20404;-64
2021/12/27 15:10:15;;;;;;;18.02;8.85;;;;;;;;;;6379071;27;20050;-66
2021/12/27 15:13:18;;;;;;;19.85;8.65;;;;;;;;;;6397806;27;20046;-66
2021/12/27 15:16:22;;;;;;;19.25;9.23;;;;;;;;;;6378066;27;20122;-66
2021/12/27 15:19:26;;;;;;;18.95;8.73;;;;;;;;;;6378154;27;20070;-66
2021/12/27 15:22:28;;;;;;;19.35;9.23;;;;;;;;;;6397674;27;20450;-67
2021/12/27 15:25:32;;;;;;;20.98;9.60;;;;;;;;;;6397167;27;20099;-67
2021/12/27 15:28:35;;;;;;;19.20;9.80;;;;;;;;;;6375168;27;20122;-67
2021/12/27 15:31:40;;;;;;;19.27;10.18;;;;;;;;;;6396701;27;20654;-67
2021/12/27 15:34:42;;;;;;;18.80;9.85;;;;;;;;;;6377464;27;20545;-68
2021/12/27 15:37:48;;;;;;;19.55;10.82;;;;;;;;;;6395802;27;20042;-67
2021/12/27 15:40:51;;;;;;;21.00;10.13;;;;;;;;;;6395702;27;20047;-67
2021/12/27 15:43:54;;;;;;;24.88;11.10;;;;;;;;;;6378406;27;20576;-67
2021/12/27 15:46:58;;;;;;;23.00;10.27;;;;;;;;;;6395952;27;20121;-67
2021/12/27 15:50:04;;;;;;;26.30;12.75;;;;;;;;;;6377425;27;20043;-67
2021/12/27 15:53:11;;;;;;;21.55;10.15;;;;;;;;;;6396749;27;20477;-67
2021/12/27 15:56:14;;;;;;;20.65;11.27;;;;;;;;;;6396831;27;20038;-68
2021/12/27 15:59:17;;;;;;;22.42;10.45;;;;;;;;;;6376651;27;20100;-67
2021/12/27 16:02:22;;;;;;;20.75;9.65;;;;;;;;;;6377831;27;20042;-67
2021/12/27 16:05:26;;;;;;;20.27;9.95;;;;;;;;;;6396312;27;20043;-67
2021/12/27 16:08:29;;;;;;;20.30;10.43;;;;;;;;;;6395162;27;20042;-68
2021/12/27 16:11:32;;;;;;;22.25;10.10;;;;;;;;;;6395446;27;20035;-69
2021/12/27 16:14:36;;;;;;;21.83;9.70;;;;;;;;;;6397635;27;20042;-68
2021/12/27 16:17:43;;;;;;;22.48;10.30;;;;;;;;;;6397680;27;20058;-69
2021/12/27 16:20:46;;;;;;;25.45;10.65;;;;;;;;;;6394961;27;20087;-67
2021/12/27 16:23:49;;;;;;;21.88;9.65;;;;;;;;;;6395579;27;20126;-67
2021/12/27 16:26:55;;;;;;;18.73;9.55;;;;;;;;;;6395873;27;20076;-68
2021/12/27 16:29:58;;;;;;;15.60;8.57;;;;;;;;;;6375485;27;20256;-68
2021/12/27 16:33:06;;;;;;;20.92;9.10;;;;;;;;;;6394266;27;20035;-68
2021/12/27 16:36:09;;;;;;;19.02;8.48;;;;;;;;;;6395816;27;20055;-68
2021/12/27 16:39:12;;;;;;;19.02;8.80;;;;;;;;;;6395257;27;20424;-66
2021/12/27 16:42:16;;;;;;;17.50;9.30;;;;;;;;;;6394116;27;20134;-68
2021/12/27 16:45:19;;;;;;;20.58;9.55;;;;;;;;;;6395138;27;20051;-67
2021/12/27 16:48:24;;;;;;;22.33;10.55;;;;;;;;;;6395074;27;20047;-67
2021/12/27 16:51:29;;;;;;;23.20;9.68;;;;;;;;;;6373185;27;20117;-66
2021/12/27 16:54:32;;;;;;;24.17;10.05;;;;;;;;;;6374054;27;20191;-66
2021/12/27 16:57:35;;;;;;;25.10;9.90;;;;;;;;;;6391852;27;20039;-67
2021/12/27 17:00:38;;;;;;;25.85;10.45;;;;;;;;;;6372755;27;20497;-67
2021/12/27 17:03:43;;;;;;;27.33;11.30;;;;;;;;;;6389469;27;20433;-67
2021/12/27 17:06:46;;;;;;;25.55;10.32;;;;;;;;;;6390214;27;20065;-67
2021/12/27 17:09:51;;;;;;;27.08;11.05;;;;;;;;;;6372164;27;20373;-67
2021/12/27 17:12:58;;;;;;;23.83;9.27;;;;;;;;;;6390827;27;20043;-67
2021/12/27 17:16:03;;;;;;;18.25;9.30;;;;;;;;;;6391389;27;20524;-66
2021/12/27 17:19:08;;;;;;;19.80;10.38;;;;;;;;;;6376126;27;20129;-67
2021/12/27 17:22:11;;;;;;;22.52;9.45;;;;;;;;;;6393718;27;20043;-67
2021/12/27 17:25:17;;;;;;;27.55;10.60;;;;;;;;;;6393517;27;20050;-67
2021/12/27 17:28:20;;;;;;;19.63;9.38;;;;;;;;;;6394482;27;20043;-67
2021/12/27 17:31:23;;;;;;;25.25;9.10;;;;;;;;;;6375589;27;20050;-67
2021/12/27 17:34:28;;;;;;;23.02;10.55;;;;;;;;;;6392925;27;20050;-68
2021/12/27 17:37:31;;;;;;;23.50;9.80;;;;;;;;;;6394415;27;20502;-67
2021/12/27 17:40:34;;;;;;;21.23;10.15;;;;;;;;;;6394149;27;20047;-67
2021/12/27 17:43:40;;;;;;;23.23;10.38;;;;;;;;;;6393199;27;20046;-67
2021/12/27 17:46:43;;;;;;;25.92;10.90;;;;;;;;;;6374657;27;20065;-67
2021/12/27 17:49:49;;;;;;;24.55;11.27;;;;;;;;;;6375443;27;20047;-67
2021/12/27 17:52:56;;;;;;;19.33;10.23;;;;;;;;;;6375253;27;20408;-66
2021/12/27 17:56:00;;;;;;;21.10;10.52;;;;;;;;;;6374071;27;20129;-67
2021/12/27 17:59:05;;;;;;;20.02;10.20;;;;;;;;;;6393657;27;20050;-67
2021/12/27 18:02:08;;;;;;;22.08;10.77;;;;;;;;;;6374850;27;20407;-66
2021/12/27 18:05:14;;;;;;;25.63;11.90;;;;;;;;;;6392923;27;20054;-67
2021/12/27 18:08:16;;;;;;;28.45;12.05;;;;;;;;;;6393564;27;20039;-68
2021/12/27 18:11:20;;;;;;;23.40;11.75;;;;;;;;;;6393707;27;20103;-67
2021/12/27 18:14:26;;;;;;;23.77;10.93;;;;;;;;;;6393399;27;20057;-68
2021/12/27 18:17:29;;;;;;;23.45;10.63;;;;;;;;;;6392314;27;20053;-67